createdAt,value
2022-11-20T00:01:40.505Z,70.70
2022-11-20T00:04:12.569Z,70.23
2022-11-20T00:06:42.482Z,70.69
2022-11-20T00:09:12.319Z,70.12
2022-11-20T00:11:40.753Z,69.96
2022-11-20T00:14:11.965Z,69.90
2022-11-20T00:16:40.395Z,69.39
2022-11-20T00:19:09.218Z,68.46
2022-11-20T00:21:37.634Z,68.76
2022-11-20T00:24:10.928Z,68.43
2022-11-20T00:26:39.441Z,68.50
2022-11-20T00:29:08.510Z,68.13
2022-11-20T00:31:37.822Z,67.87
2022-11-20T00:34:06.555Z,67.79
2022-11-20T00:36:36.296Z,68.03
2022-11-20T00:39:05.527Z,67.42
2022-11-20T00:41:35.329Z,67.40
2022-11-20T00:44:04.132Z,67.50
2022-11-20T00:46:32.873Z,67.14
2022-11-20T00:49:02.013Z,67.35
2022-11-20T00:51:30.629Z,66.79
2022-11-20T00:54:01.130Z,66.57
2022-11-20T00:56:30.383Z,66.09
2022-11-20T00:59:02.097Z,66.90
2022-11-20T01:01:31.454Z,67.49
2022-11-20T01:04:02.128Z,68.89
2022-11-20T01:06:32.550Z,69.46
2022-11-20T01:09:02.798Z,69.72
2022-11-20T01:11:33.431Z,69.43
2022-11-20T01:14:06.297Z,69.60
2022-11-20T01:16:37.371Z,69.88
2022-11-20T01:19:08.501Z,69.73
2022-11-20T01:21:39.390Z,71.21
2022-11-20T01:24:10.321Z,71.60
2022-11-20T01:26:40.501Z,70.51
2022-11-20T01:29:15.300Z,76.74
2022-11-20T01:31:44.338Z,79.51
2022-11-20T01:34:15.372Z,76.86
2022-11-20T01:36:44.669Z,75.52
2022-11-20T01:39:15.765Z,73.96
2022-11-20T01:42:08.419Z,72.46
2022-11-20T01:44:58.416Z,71.24
2022-11-20T01:47:32.637Z,70.57
2022-11-20T01:50:06.656Z,70.41
2022-11-20T01:52:38.841Z,69.97
2022-11-20T01:55:11.014Z,69.25
2022-11-20T01:57:42.489Z,68.85
2022-11-20T02:00:16.064Z,68.79
2022-11-20T02:02:51.026Z,68.59
2022-11-20T02:05:25.621Z,68.08
2022-11-20T02:07:56.549Z,67.62
2022-11-20T02:10:26.038Z,67.18
2022-11-20T02:13:12.408Z,67.48
2022-11-20T02:15:42.895Z,67.21
2022-11-20T02:18:13.067Z,67.07
2022-11-20T02:20:44.444Z,66.90
2022-11-20T02:23:17.095Z,66.65
2022-11-20T02:25:49.427Z,66.27
2022-11-20T02:28:19.717Z,66.16
2022-11-20T02:30:48.521Z,65.74
2022-11-20T02:33:16.984Z,65.83
2022-11-20T02:35:47.335Z,65.53
2022-11-20T02:38:16.540Z,65.11
2022-11-20T02:40:45.645Z,64.89
2022-11-20T02:43:15.589Z,64.96
2022-11-20T02:45:44.318Z,64.50
2022-11-20T02:48:12.880Z,65.39
2022-11-20T02:50:41.988Z,64.36
2022-11-20T02:53:10.668Z,64.99
2022-11-20T02:55:39.691Z,64.90
2022-11-20T02:58:08.349Z,66.26
2022-11-20T03:00:38.412Z,67.21
2022-11-20T03:03:06.754Z,67.11
2022-11-20T03:05:35.521Z,67.05
2022-11-20T03:08:03.866Z,66.70
2022-11-20T03:10:32.629Z,67.08
2022-11-20T03:13:01.159Z,69.67
2022-11-20T03:15:32.560Z,68.72
2022-11-20T03:18:02.432Z,68.33
2022-11-20T03:20:31.545Z,67.86
2022-11-20T03:22:59.947Z,67.16
2022-11-20T03:25:28.763Z,66.89
2022-11-20T03:27:57.243Z,67.15
2022-11-20T03:30:30.354Z,68.74
2022-11-20T03:32:59.337Z,67.91
2022-11-20T03:35:29.644Z,71.36
2022-11-20T03:37:59.218Z,75.00
2022-11-20T03:40:28.002Z,75.16
2022-11-20T03:42:56.428Z,77.21
2022-11-20T03:45:25.233Z,77.93
2022-11-20T03:47:53.815Z,77.57
2022-11-20T03:50:22.634Z,78.52
2022-11-20T03:52:52.626Z,78.62
2022-11-20T03:55:21.512Z,79.65
2022-11-20T03:57:49.892Z,78.27
2022-11-20T04:00:18.723Z,77.93
2022-11-20T04:02:47.122Z,79.04
2022-11-20T04:05:16.107Z,79.93
2022-11-20T04:07:44.485Z,79.33
2022-11-20T04:10:14.666Z,80.22
2022-11-20T04:12:43.204Z,78.15
2022-11-20T04:15:12.239Z,77.00
2022-11-20T04:17:40.649Z,75.45
2022-11-20T04:20:10.393Z,73.97
2022-11-20T04:22:38.875Z,72.82
2022-11-20T04:25:08.181Z,73.16
2022-11-20T04:27:38.001Z,72.17
2022-11-20T04:30:07.904Z,71.48
2022-11-20T04:32:36.631Z,70.70
2022-11-20T04:35:05.740Z,70.67
2022-11-20T04:37:34.854Z,70.13
2022-11-20T04:40:03.537Z,69.83
2022-11-20T04:42:31.931Z,69.23
2022-11-20T04:45:02.178Z,68.80
2022-11-20T04:47:30.627Z,68.94
2022-11-20T04:49:59.692Z,68.48
2022-11-20T04:52:28.235Z,67.92
2022-11-20T04:54:57.444Z,67.85
2022-11-20T04:57:25.889Z,68.88
2022-11-20T04:59:54.716Z,68.21
2022-11-20T05:02:25.286Z,68.14
2022-11-20T05:04:54.137Z,67.75
2022-11-20T05:07:22.720Z,67.46
2022-11-20T05:09:51.548Z,67.85
2022-11-20T05:12:19.960Z,67.95
2022-11-20T05:14:48.756Z,68.09
2022-11-20T05:17:17.356Z,72.25
2022-11-20T05:19:50.641Z,75.56
2022-11-20T05:22:21.506Z,78.52
2022-11-20T05:24:50.270Z,80.56
2022-11-20T05:27:18.842Z,81.13
2022-11-20T05:29:48.815Z,82.46
2022-11-20T05:32:17.236Z,82.70
2022-11-20T05:34:47.339Z,82.64
2022-11-20T05:37:15.680Z,82.31
2022-11-20T05:39:44.422Z,81.69
2022-11-20T05:42:30.122Z,80.23
2022-11-20T05:44:59.393Z,80.37
2022-11-20T05:47:28.422Z,78.04
2022-11-20T05:49:58.579Z,76.73
2022-11-20T05:52:30.557Z,76.21
2022-11-20T05:54:59.469Z,75.02
2022-11-20T05:57:27.851Z,74.36
2022-11-20T05:59:56.662Z,72.73
2022-11-20T06:02:25.162Z,72.32
2022-11-20T06:04:53.975Z,71.54
2022-11-20T06:07:23.920Z,70.60
2022-11-20T06:09:52.831Z,70.47
2022-11-20T06:12:21.418Z,69.81
2022-11-20T06:14:50.198Z,69.18
2022-11-20T06:17:18.633Z,69.28
2022-11-20T06:19:47.469Z,68.98
2022-11-20T06:22:15.954Z,68.67
2022-11-20T06:24:46.063Z,68.47
2022-11-20T06:27:14.552Z,68.42
2022-11-20T06:29:43.407Z,67.97
2022-11-20T06:32:12.287Z,67.79
2022-11-20T06:34:41.001Z,67.56
2022-11-20T06:37:09.462Z,67.42
2022-11-20T06:39:38.314Z,66.97
2022-11-20T06:42:08.216Z,66.78
2022-11-20T06:44:37.115Z,66.56
2022-11-20T06:47:06.241Z,66.38
2022-11-20T06:49:35.371Z,67.12
2022-11-20T06:52:03.894Z,66.65
2022-11-20T06:54:32.631Z,66.50
2022-11-20T06:57:01.113Z,66.29
2022-11-20T06:59:31.246Z,66.22
2022-11-20T07:01:59.789Z,65.83
2022-11-20T07:04:28.623Z,66.01
2022-11-20T07:06:57.346Z,66.09
2022-11-20T07:09:26.636Z,68.36
2022-11-20T07:11:55.330Z,73.17
2022-11-20T07:14:24.091Z,76.08
2022-11-20T07:16:53.908Z,75.74
2022-11-20T07:19:22.713Z,76.44
2022-11-20T07:21:51.322Z,78.34
2022-11-20T07:24:20.036Z,80.28
2022-11-20T07:26:49.800Z,80.94
2022-11-20T07:29:18.752Z,81.55
2022-11-20T07:31:47.266Z,82.36
2022-11-20T07:34:17.359Z,83.21
2022-11-20T07:36:45.739Z,82.46
2022-11-20T07:39:14.490Z,82.28
2022-11-20T07:41:42.867Z,82.35
2022-11-20T07:44:11.742Z,82.47
2022-11-20T07:46:40.140Z,83.38
2022-11-20T07:49:09.134Z,84.84
2022-11-20T07:51:39.105Z,84.53
2022-11-20T07:54:08.055Z,84.68
2022-11-20T07:56:36.528Z,85.38
2022-11-20T07:59:05.669Z,85.25
2022-11-20T08:01:33.979Z,84.16
2022-11-20T08:04:02.807Z,84.79
2022-11-20T08:06:31.374Z,85.64
2022-11-20T08:09:01.796Z,85.36
2022-11-20T08:11:48.082Z,85.64
2022-11-20T08:14:16.900Z,86.04
2022-11-20T08:16:47.616Z,86.31
2022-11-20T08:19:18.364Z,85.80
2022-11-20T08:21:47.275Z,86.55
2022-11-20T08:24:17.480Z,85.39
2022-11-20T08:26:45.953Z,86.04
2022-11-20T08:29:15.740Z,84.83
2022-11-20T08:31:44.346Z,86.25
2022-11-20T08:34:33.129Z,86.25
2022-11-20T08:37:03.836Z,86.40
2022-11-20T08:39:34.008Z,85.18
2022-11-20T08:42:02.540Z,84.75
2022-11-20T08:44:31.747Z,85.64
2022-11-20T08:47:00.275Z,85.86
2022-11-20T08:49:29.425Z,83.75
2022-11-20T08:51:59.057Z,82.99
2022-11-20T08:54:27.794Z,80.81
2022-11-20T08:56:57.721Z,79.23
2022-11-20T08:59:50.667Z,78.23
2022-11-20T09:02:14.948Z,76.87
2022-11-20T09:04:43.736Z,75.76
2022-11-20T09:07:12.301Z,74.30
2022-11-20T09:09:41.095Z,73.44
2022-11-20T09:12:10.993Z,73.21
2022-11-20T09:14:39.805Z,72.06
2022-11-20T09:17:08.788Z,71.65
2022-11-20T09:19:37.492Z,71.08
2022-11-20T09:22:06.032Z,71.54
2022-11-20T09:24:34.957Z,71.83
2022-11-20T09:27:07.143Z,71.34
2022-11-20T09:29:37.489Z,69.94
2022-11-20T09:32:07.041Z,69.44
2022-11-20T09:34:35.846Z,70.10
2022-11-20T09:37:06.526Z,69.36
2022-11-20T09:39:39.911Z,69.44
2022-11-20T09:42:51.616Z,69.07
2022-11-20T09:45:45.239Z,70.96
2022-11-20T09:48:28.204Z,77.13
2022-11-20T09:51:06.301Z,81.12
2022-11-20T09:53:43.932Z,82.89
2022-11-20T09:56:16.984Z,81.97
2022-11-20T09:58:52.864Z,82.79
2022-11-20T10:01:28.273Z,82.23
2022-11-20T10:04:01.074Z,81.62
2022-11-20T10:06:32.806Z,82.33
2022-11-20T10:09:16.484Z,82.68
2022-11-20T10:11:54.035Z,82.83
2022-11-20T10:14:35.469Z,81.70
2022-11-20T10:17:18.992Z,81.68
2022-11-20T10:20:05.003Z,83.30
2022-11-20T10:22:47.126Z,84.01
2022-11-20T10:25:18.047Z,81.69
2022-11-20T10:28:00.890Z,83.55
2022-11-20T10:30:31.293Z,85.30
2022-11-20T10:33:08.855Z,85.78
2022-11-20T10:35:45.334Z,83.73
2022-11-20T10:38:21.772Z,84.41
2022-11-20T10:40:54.120Z,84.14
2022-11-20T10:43:29.633Z,85.11
2022-11-20T10:46:02.760Z,84.70
2022-11-20T10:48:34.675Z,84.20
2022-11-20T10:51:24.065Z,84.69
2022-11-20T10:54:12.642Z,83.58
2022-11-20T10:56:49.508Z,82.28
2022-11-20T10:59:37.706Z,84.26
2022-11-20T11:02:18.587Z,82.77
2022-11-20T11:04:51.561Z,83.01
2022-11-20T11:07:25.662Z,83.22
2022-11-20T11:09:57.094Z,83.13
2022-11-20T11:12:27.892Z,84.01
2022-11-20T11:14:58.936Z,86.15
2022-11-20T11:17:30.404Z,85.61
2022-11-20T11:20:02.693Z,85.77
2022-11-20T11:22:32.435Z,86.11
2022-11-20T11:25:02.062Z,87.67
2022-11-20T11:27:30.852Z,88.27
2022-11-20T11:30:16.146Z,87.89
2022-11-20T11:32:46.153Z,87.28
2022-11-20T11:35:25.872Z,86.54
2022-11-20T11:38:17.524Z,86.86
2022-11-20T11:40:46.409Z,86.88
2022-11-20T11:43:39.954Z,85.88
2022-11-20T11:46:27.561Z,86.30
2022-11-20T11:49:00.683Z,86.09
2022-11-20T11:51:38.567Z,86.63
2022-11-20T11:54:18.293Z,87.74
2022-11-20T11:56:48.064Z,88.54
2022-11-20T11:59:25.705Z,88.27
2022-11-20T12:02:01.447Z,88.13
2022-11-20T12:04:44.763Z,87.04
2022-11-20T12:07:45.406Z,87.05
2022-11-20T12:10:21.176Z,87.98
2022-11-20T12:12:55.600Z,87.91
2022-11-20T12:15:33.517Z,87.94
2022-11-20T12:18:03.279Z,88.81
2022-11-20T12:20:37.845Z,88.77
2022-11-20T12:23:18.663Z,89.25
2022-11-20T12:25:55.775Z,89.80
2022-11-20T12:28:48.970Z,89.42
2022-11-20T12:31:32.146Z,87.37
2022-11-20T12:34:12.108Z,87.45
2022-11-20T12:36:47.576Z,87.21
2022-11-20T12:39:33.327Z,85.24
2022-11-20T12:43:06.357Z,84.47
2022-11-20T12:45:54.360Z,83.29
2022-11-20T12:48:46.616Z,85.39
2022-11-20T12:51:45.354Z,85.04
2022-11-20T12:54:31.318Z,85.68
2022-11-20T12:57:06.949Z,85.19
2022-11-20T13:00:00.741Z,84.63
2022-11-20T13:02:39.470Z,84.86
2022-11-20T13:05:21.774Z,86.00
2022-11-20T13:07:54.540Z,85.19
2022-11-20T13:10:34.661Z,84.87
2022-11-20T13:13:14.650Z,83.68
2022-11-20T13:15:52.869Z,81.97
2022-11-20T13:18:22.264Z,82.05
2022-11-20T13:20:50.917Z,83.70
2022-11-20T13:23:27.941Z,84.41
2022-11-20T13:26:16.062Z,83.21
2022-11-20T13:28:44.918Z,82.21
2022-11-20T13:31:32.331Z,82.36
2022-11-20T13:34:03.793Z,82.78
2022-11-20T13:36:33.407Z,81.70
2022-11-20T13:39:02.151Z,81.70
2022-11-20T13:41:35.083Z,81.29
2022-11-20T13:44:14.931Z,79.61
2022-11-20T13:46:45.646Z,81.01
2022-11-20T13:49:22.878Z,78.70
2022-11-20T13:51:54.170Z,78.18
2022-11-20T13:54:55.628Z,77.02
2022-11-20T13:57:50.825Z,74.76
2022-11-20T14:00:22.107Z,79.83
2022-11-20T14:03:04.122Z,82.78
2022-11-20T14:05:37.039Z,82.45
2022-11-20T14:08:07.626Z,82.67
2022-11-20T14:10:40.125Z,84.59
2022-11-20T14:13:21.221Z,81.81
2022-11-20T14:15:50.212Z,80.13
2022-11-20T14:18:23.461Z,79.15
2022-11-20T14:20:52.363Z,78.93
2022-11-20T14:23:30.073Z,82.25
2022-11-20T14:25:59.639Z,82.45
2022-11-20T14:28:31.641Z,83.13
2022-11-20T14:31:01.075Z,83.30
2022-11-20T14:33:29.971Z,85.15
2022-11-20T14:35:59.908Z,85.80
2022-11-20T14:38:31.097Z,85.34
2022-11-20T14:41:08.987Z,86.06
2022-11-20T14:43:39.207Z,84.88
2022-11-20T14:46:11.082Z,83.22
2022-11-20T14:48:41.853Z,84.34
2022-11-20T14:51:12.158Z,83.83
2022-11-20T14:53:40.776Z,81.71
2022-11-20T14:56:10.842Z,82.68
2022-11-20T14:58:41.693Z,82.86
2022-11-20T15:01:15.827Z,81.46
2022-11-20T15:03:44.644Z,79.73
2022-11-20T15:06:14.537Z,80.33
2022-11-20T15:08:52.779Z,82.25
2022-11-20T15:11:25.843Z,80.77
2022-11-20T15:13:56.251Z,81.86
2022-11-20T15:16:27.823Z,81.54
2022-11-20T15:18:57.191Z,82.34
2022-11-20T15:21:26.354Z,83.19
2022-11-20T15:23:55.453Z,81.13
2022-11-20T15:26:27.123Z,80.03
2022-11-20T15:28:57.222Z,80.93
2022-11-20T15:31:26.297Z,82.03
2022-11-20T15:33:54.787Z,80.38
2022-11-20T15:36:23.713Z,78.58
2022-11-20T15:39:12.710Z,77.06
2022-11-20T15:41:41.836Z,76.30
2022-11-20T15:44:12.539Z,75.12
2022-11-20T15:46:45.586Z,76.45
2022-11-20T15:49:15.836Z,76.92
2022-11-20T15:51:47.373Z,75.89
2022-11-20T15:54:18.575Z,76.61
2022-11-20T15:56:47.758Z,79.21
2022-11-20T15:59:17.707Z,81.06
2022-11-20T16:01:47.229Z,81.89
2022-11-20T16:04:17.805Z,82.03
2022-11-20T16:06:47.060Z,81.25
2022-11-20T16:09:15.972Z,80.65
2022-11-20T16:11:45.673Z,79.07
2022-11-20T16:14:31.814Z,78.43
2022-11-20T16:17:02.691Z,77.75
2022-11-20T16:19:31.399Z,76.61
2022-11-20T16:22:02.887Z,77.20
2022-11-20T16:24:32.275Z,79.76
2022-11-20T16:27:04.090Z,80.86
2022-11-20T16:29:32.694Z,80.89
2022-11-20T16:32:03.351Z,81.47
2022-11-20T16:34:32.322Z,81.33
2022-11-20T16:37:01.523Z,81.86
2022-11-20T16:39:30.384Z,82.35
2022-11-20T16:41:59.461Z,82.24
2022-11-20T16:44:28.687Z,82.35
2022-11-20T16:46:57.907Z,82.42
2022-11-20T16:49:28.562Z,82.64
2022-11-20T16:51:57.962Z,83.23
2022-11-20T16:54:27.435Z,83.38
2022-11-20T16:56:56.557Z,82.17
2022-11-20T16:59:25.567Z,82.40
2022-11-20T17:01:54.762Z,81.50
2022-11-20T17:04:24.807Z,81.01
2022-11-20T17:06:55.571Z,80.54
2022-11-20T17:09:24.353Z,81.49
2022-11-20T17:11:53.077Z,80.84
2022-11-20T17:14:21.885Z,80.90
2022-11-20T17:16:50.773Z,81.93
2022-11-20T17:19:20.090Z,81.14
2022-11-20T17:21:49.809Z,80.80
2022-11-20T17:24:20.108Z,80.82
2022-11-20T17:26:50.123Z,80.97
2022-11-20T17:29:21.694Z,81.64
2022-11-20T17:31:50.894Z,82.89
2022-11-20T17:34:20.052Z,81.12
2022-11-20T17:36:50.315Z,82.58
2022-11-20T17:39:20.252Z,81.97
2022-11-20T17:42:09.664Z,81.91
2022-11-20T17:44:38.441Z,82.09
2022-11-20T17:47:07.429Z,82.42
2022-11-20T17:49:56.033Z,81.26
2022-11-20T17:52:25.291Z,80.61
2022-11-20T17:54:56.101Z,81.02
2022-11-20T17:57:42.928Z,81.16
2022-11-20T18:00:13.258Z,79.90
2022-11-20T18:02:42.247Z,81.24
2022-11-20T18:05:11.077Z,80.48
2022-11-20T18:07:41.949Z,80.79
2022-11-20T18:10:12.349Z,80.67
2022-11-20T18:12:41.548Z,82.00
2022-11-20T18:15:30.528Z,82.86
2022-11-20T18:17:59.387Z,81.53
2022-11-20T18:20:30.478Z,80.96
2022-11-20T18:23:01.935Z,83.30
2022-11-20T18:25:31.859Z,83.46
2022-11-20T18:28:00.831Z,82.63
2022-11-20T18:30:29.494Z,81.51
2022-11-20T18:32:58.352Z,80.57
2022-11-20T18:35:28.195Z,81.53
2022-11-20T18:37:57.066Z,83.03
2022-11-20T18:40:25.942Z,83.50
2022-11-20T18:43:14.160Z,83.11
2022-11-20T18:45:42.752Z,82.45
2022-11-20T18:48:11.848Z,82.85
2022-11-20T18:50:40.419Z,82.87
2022-11-20T18:53:09.268Z,83.38
2022-11-20T18:55:37.905Z,82.45
2022-11-20T18:58:08.155Z,83.43
2022-11-20T19:00:36.733Z,85.09
2022-11-20T19:03:05.631Z,83.96
2022-11-20T19:05:38.488Z,83.98
2022-11-20T19:08:07.434Z,83.81
2022-11-20T19:10:37.569Z,83.06
2022-11-20T19:13:08.069Z,82.80
2022-11-20T19:15:37.757Z,81.91
2022-11-20T19:18:06.714Z,80.59
2022-11-20T19:20:35.344Z,79.39
2022-11-20T19:23:04.262Z,77.98
2022-11-20T19:25:37.887Z,78.79
2022-11-20T19:28:08.519Z,78.52
2022-11-20T19:30:36.984Z,79.83
2022-11-20T19:33:05.978Z,78.50
2022-11-20T19:35:36.554Z,78.23
2022-11-20T19:38:06.106Z,80.92
2022-11-20T19:40:34.691Z,78.17
2022-11-20T19:43:03.988Z,76.71
2022-11-20T19:45:33.916Z,75.74
2022-11-20T19:48:09.873Z,75.16
2022-11-20T19:50:38.687Z,74.47
2022-11-20T19:53:07.578Z,74.08
2022-11-20T19:55:36.101Z,72.73
2022-11-20T19:58:05.077Z,73.04
2022-11-20T20:00:34.831Z,72.57
2022-11-20T20:03:03.620Z,73.47
2022-11-20T20:05:33.128Z,72.69
2022-11-20T20:08:02.005Z,72.26
2022-11-20T20:10:30.575Z,71.89
2022-11-20T20:12:59.355Z,73.15
2022-11-20T20:15:27.811Z,72.56
2022-11-20T20:17:58.078Z,71.89
2022-11-20T20:20:27.358Z,71.66
2022-11-20T20:22:56.655Z,71.68
2022-11-20T20:25:25.987Z,73.58
2022-11-20T20:27:56.002Z,75.28
2022-11-20T20:30:26.222Z,74.72
2022-11-20T20:33:04.347Z,75.16
2022-11-20T20:35:34.351Z,75.85
2022-11-20T20:38:03.506Z,76.31
2022-11-20T20:40:32.737Z,77.31
2022-11-20T20:43:02.427Z,76.38
2022-11-20T20:45:31.596Z,74.30
2022-11-20T20:48:01.220Z,72.99
2022-11-20T20:50:30.179Z,72.20
2022-11-20T20:53:00.594Z,71.85
2022-11-20T20:55:49.098Z,70.80
2022-11-20T20:58:18.228Z,71.85
2022-11-20T21:00:47.057Z,71.82
2022-11-20T21:03:16.356Z,71.47
2022-11-20T21:05:45.183Z,71.41
2022-11-20T21:08:25.428Z,70.19
2022-11-20T21:10:55.716Z,72.92
2022-11-20T21:13:25.219Z,72.01
2022-11-20T21:15:54.015Z,71.05
2022-11-20T21:18:24.487Z,71.16
2022-11-20T21:21:10.728Z,71.76
2022-11-20T21:23:41.887Z,72.33
2022-11-20T21:26:11.338Z,73.98
2022-11-20T21:28:40.251Z,74.54
2022-11-20T21:31:10.416Z,75.90
2022-11-20T21:33:40.866Z,74.33
2022-11-20T21:36:09.805Z,74.80
2022-11-20T21:38:40.507Z,77.12
2022-11-20T21:41:11.377Z,77.71
2022-11-20T21:43:40.430Z,77.86
2022-11-20T21:46:10.691Z,78.98
2022-11-20T21:48:40.866Z,79.30
2022-11-20T21:51:11.136Z,79.20
2022-11-20T21:53:42.130Z,80.02
2022-11-20T21:56:14.329Z,79.80
2022-11-20T21:58:47.182Z,80.32
2022-11-20T22:01:18.012Z,79.35
2022-11-20T22:03:49.549Z,79.63
2022-11-20T22:06:18.834Z,79.92
2022-11-20T22:08:49.794Z,79.06
2022-11-20T22:11:20.703Z,77.87
2022-11-20T22:14:07.755Z,77.21
2022-11-20T22:16:37.003Z,78.01
2022-11-20T22:19:07.017Z,78.88
2022-11-20T22:21:36.060Z,80.27
2022-11-20T22:24:06.839Z,80.63
2022-11-20T22:26:40.325Z,79.68
2022-11-20T22:29:15.024Z,80.35
2022-11-20T22:31:43.940Z,81.47
2022-11-20T22:34:14.333Z,81.15
2022-11-20T22:36:43.221Z,80.77
2022-11-20T22:39:13.758Z,79.87
2022-11-20T22:41:42.437Z,79.69
2022-11-20T22:44:15.497Z,80.42
2022-11-20T22:46:44.288Z,81.04
2022-11-20T22:49:13.185Z,79.56
2022-11-20T22:51:43.008Z,79.93
2022-11-20T22:54:14.040Z,82.70
2022-11-20T22:57:03.427Z,82.32
2022-11-20T22:59:32.602Z,82.60
2022-11-20T23:02:00.976Z,82.54
2022-11-20T23:04:29.595Z,80.90
2022-11-20T23:06:57.923Z,78.95
2022-11-20T23:09:27.986Z,78.14
2022-11-20T23:11:56.472Z,77.89
2022-11-20T23:14:27.848Z,76.71
2022-11-20T23:16:56.479Z,76.30
2022-11-20T23:19:25.386Z,76.11
2022-11-20T23:21:54.264Z,75.01
2022-11-20T23:24:23.069Z,75.41
2022-11-20T23:26:52.961Z,75.97
2022-11-20T23:29:21.730Z,75.45
2022-11-20T23:31:50.189Z,74.52
2022-11-20T23:34:19.273Z,74.18
2022-11-20T23:36:47.890Z,74.60
2022-11-20T23:39:16.865Z,75.23
2022-11-20T23:41:45.282Z,75.00
2022-11-20T23:44:15.447Z,74.71
2022-11-20T23:46:44.024Z,74.66
2022-11-20T23:49:12.743Z,75.19
2022-11-20T23:51:41.272Z,74.66
2022-11-20T23:54:10.132Z,74.18
2022-11-20T23:56:38.529Z,74.76
2022-11-20T23:59:07.935Z,74.31
